sensor_id;sensor_type;location;lat;lon;timestamp;pressure;altitude;pressure_sealevel;temperature;humidity
64078;BME280;51039;49.696;10.808;2023-06-14T00:02:00;98069.69;;;15.50;55.17
64078;BME280;51039;49.696;10.808;2023-06-14T00:04:26;98063.22;;;15.46;55.05
64078;BME280;51039;49.696;10.808;2023-06-14T00:06:51;98061.56;;;15.45;55.16
64078;BME280;51039;49.696;10.808;2023-06-14T00:09:17;98066.28;;;15.38;55.26
64078;BME280;51039;49.696;10.808;2023-06-14T00:11:43;98066.19;;;15.32;55.82
64078;BME280;51039;49.696;10.808;2023-06-14T00:14:09;98059.63;;;15.23;56.30
64078;BME280;51039;49.696;10.808;2023-06-14T00:16:34;98060.19;;;15.25;55.89
64078;BME280;51039;49.696;10.808;2023-06-14T00:19:01;98059.28;;;15.20;56.24
64078;BME280;51039;49.696;10.808;2023-06-14T00:21:28;98054.19;;;15.18;56.56
64078;BME280;51039;49.696;10.808;2023-06-14T00:23:54;98050.31;;;15.09;56.89
64078;BME280;51039;49.696;10.808;2023-06-14T00:26:20;98047.53;;;15.04;57.16
64078;BME280;51039;49.696;10.808;2023-06-14T00:28:45;98045.09;;;15.02;57.11
64078;BME280;51039;49.696;10.808;2023-06-14T00:31:10;98044.53;;;15.00;57.01
64078;BME280;51039;49.696;10.808;2023-06-14T00:33:36;98038.13;;;14.84;58.40
64078;BME280;51039;49.696;10.808;2023-06-14T00:36:01;98040.09;;;14.77;58.08
64078;BME280;51039;49.696;10.808;2023-06-14T00:38:26;98041.53;;;14.68;58.46
64078;BME280;51039;49.696;10.808;2023-06-14T00:40:52;98042.72;;;14.60;58.97
64078;BME280;51039;49.696;10.808;2023-06-14T00:43:17;98039.81;;;14.62;58.58
64078;BME280;51039;49.696;10.808;2023-06-14T00:45:42;98039.34;;;14.65;58.53
64078;BME280;51039;49.696;10.808;2023-06-14T00:48:08;98032.03;;;14.60;59.31
64078;BME280;51039;49.696;10.808;2023-06-14T00:50:34;98035.63;;;14.54;60.24
64078;BME280;51039;49.696;10.808;2023-06-14T00:53:00;98040.63;;;14.50;59.72
64078;BME280;51039;49.696;10.808;2023-06-14T00:55:26;98048.28;;;14.47;59.63
64078;BME280;51039;49.696;10.808;2023-06-14T00:57:53;98047.84;;;14.38;60.00
64078;BME280;51039;49.696;10.808;2023-06-14T01:00:19;98048.28;;;14.35;60.45
64078;BME280;51039;49.696;10.808;2023-06-14T01:02:45;98049.59;;;14.32;60.49
64078;BME280;51039;49.696;10.808;2023-06-14T01:05:10;98049.59;;;14.32;59.93
64078;BME280;51039;49.696;10.808;2023-06-14T01:10:27;98048.78;;;14.32;59.63
64078;BME280;51039;49.696;10.808;2023-06-14T01:15:38;98048.63;;;14.39;59.28
64078;BME280;51039;49.696;10.808;2023-06-14T01:18:05;98047.84;;;14.38;59.27
64078;BME280;51039;49.696;10.808;2023-06-14T01:20:32;98032.53;;;14.33;59.61
64078;BME280;51039;49.696;10.808;2023-06-14T01:23:01;98040.91;;;14.25;59.69
64078;BME280;51039;49.696;10.808;2023-06-14T01:25:27;98045.53;;;14.18;60.13
64078;BME280;51039;49.696;10.808;2023-06-14T01:27:53;98048.13;;;14.13;60.36
64078;BME280;51039;49.696;10.808;2023-06-14T01:30:23;98045.09;;;14.09;60.80
64078;BME280;51039;49.696;10.808;2023-06-14T01:32:50;98054.13;;;14.08;60.53
64078;BME280;51039;49.696;10.808;2023-06-14T01:35:17;98050.88;;;14.06;61.20
64078;BME280;51039;49.696;10.808;2023-06-14T01:37:42;98048.00;;;13.96;61.77
64078;BME280;51039;49.696;10.808;2023-06-14T01:40:09;98049.50;;;13.92;62.07
64078;BME280;51039;49.696;10.808;2023-06-14T01:42:36;98054.13;;;13.85;62.67
64078;BME280;51039;49.696;10.808;2023-06-14T01:45:06;98052.75;;;13.70;63.34
64078;BME280;51039;49.696;10.808;2023-06-14T01:47:34;98046.25;;;13.66;63.94
64078;BME280;51039;49.696;10.808;2023-06-14T01:50:01;98052.03;;;13.51;64.63
64078;BME280;51039;49.696;10.808;2023-06-14T01:52:27;98047.84;;;13.44;65.17
64078;BME280;51039;49.696;10.808;2023-06-14T01:54:52;98041.13;;;13.41;65.62
64078;BME280;51039;49.696;10.808;2023-06-14T01:57:18;98042.63;;;13.37;65.66
64078;BME280;51039;49.696;10.808;2023-06-14T01:59:45;98044.34;;;13.31;65.70
64078;BME280;51039;49.696;10.808;2023-06-14T02:02:13;98054.09;;;13.38;65.37
64078;BME280;51039;49.696;10.808;2023-06-14T02:04:39;98052.25;;;13.50;64.60
64078;BME280;51039;49.696;10.808;2023-06-14T02:07:04;98056.28;;;13.52;64.23
64078;BME280;51039;49.696;10.808;2023-06-14T02:09:30;98052.81;;;13.52;64.14
64078;BME280;51039;49.696;10.808;2023-06-14T02:11:55;98053.84;;;13.51;64.35
64078;BME280;51039;49.696;10.808;2023-06-14T02:14:20;98055.59;;;13.45;64.41
64078;BME280;51039;49.696;10.808;2023-06-14T02:16:45;98061.00;;;13.39;64.37
64078;BME280;51039;49.696;10.808;2023-06-14T02:19:17;98054.75;;;13.33;64.98
64078;BME280;51039;49.696;10.808;2023-06-14T02:21:43;98057.88;;;13.30;65.14
64078;BME280;51039;49.696;10.808;2023-06-14T02:24:09;98054.97;;;13.31;65.16
64078;BME280;51039;49.696;10.808;2023-06-14T02:26:35;98062.34;;;13.29;65.15
64078;BME280;51039;49.696;10.808;2023-06-14T02:29:00;98062.34;;;13.29;65.51
64078;BME280;51039;49.696;10.808;2023-06-14T02:31:25;98065.69;;;13.25;65.55
64078;BME280;51039;49.696;10.808;2023-06-14T02:33:52;98070.22;;;13.24;65.61
64078;BME280;51039;49.696;10.808;2023-06-14T02:36:17;98063.47;;;13.22;65.74
64078;BME280;51039;49.696;10.808;2023-06-14T02:38:43;98066.59;;;13.19;66.30
64078;BME280;51039;49.696;10.808;2023-06-14T02:41:08;98068.31;;;13.13;66.24
64078;BME280;51039;49.696;10.808;2023-06-14T02:43:33;98067.84;;;13.16;66.12
64078;BME280;51039;49.696;10.808;2023-06-14T02:45:58;98071.69;;;13.20;65.91
64078;BME280;51039;49.696;10.808;2023-06-14T02:48:24;98079.00;;;13.25;66.10
64078;BME280;51039;49.696;10.808;2023-06-14T02:50:49;98080.50;;;13.21;66.11
64078;BME280;51039;49.696;10.808;2023-06-14T02:53:15;98084.28;;;13.13;66.83
64078;BME280;51039;49.696;10.808;2023-06-14T02:55:40;98080.19;;;13.10;67.05
64078;BME280;51039;49.696;10.808;2023-06-14T02:58:06;98078.81;;;13.08;67.26
64078;BME280;51039;49.696;10.808;2023-06-14T03:00:31;98087.44;;;12.91;67.78
64078;BME280;51039;49.696;10.808;2023-06-14T03:02:56;98089.44;;;12.77;68.41
64078;BME280;51039;49.696;10.808;2023-06-14T03:05:22;98091.13;;;12.72;68.63
64078;BME280;51039;49.696;10.808;2023-06-14T03:07:48;98090.31;;;12.71;68.96
64078;BME280;51039;49.696;10.808;2023-06-14T03:10:15;98092.22;;;12.83;68.43
64078;BME280;51039;49.696;10.808;2023-06-14T03:12:41;98087.06;;;12.88;68.09
64078;BME280;51039;49.696;10.808;2023-06-14T03:15:06;98100.56;;;12.86;68.24
64078;BME280;51039;49.696;10.808;2023-06-14T03:17:32;98096.44;;;12.90;68.35
64078;BME280;51039;49.696;10.808;2023-06-14T03:20:01;98105.44;;;12.89;68.28
64078;BME280;51039;49.696;10.808;2023-06-14T03:22:27;98100.78;;;12.85;68.33
64078;BME280;51039;49.696;10.808;2023-06-14T03:24:53;98093.63;;;12.85;68.34
64078;BME280;51039;49.696;10.808;2023-06-14T03:27:19;98102.56;;;12.91;68.14
64078;BME280;51039;49.696;10.808;2023-06-14T03:29:44;98097.69;;;12.88;68.37
64078;BME280;51039;49.696;10.808;2023-06-14T03:32:09;98110.84;;;12.83;69.13
64078;BME280;51039;49.696;10.808;2023-06-14T03:34:35;98097.19;;;12.79;69.25
64078;BME280;51039;49.696;10.808;2023-06-14T03:37:00;98105.38;;;12.77;69.68
64078;BME280;51039;49.696;10.808;2023-06-14T03:39:26;98108.50;;;12.74;69.35
64078;BME280;51039;49.696;10.808;2023-06-14T03:41:51;98104.19;;;12.73;69.75
64078;BME280;51039;49.696;10.808;2023-06-14T03:44:17;98114.03;;;12.73;69.96
64078;BME280;51039;49.696;10.808;2023-06-14T03:46:43;98117.22;;;12.63;70.35
64078;BME280;51039;49.696;10.808;2023-06-14T03:49:10;98113.81;;;12.74;69.85
64078;BME280;51039;49.696;10.808;2023-06-14T03:51:36;98118.72;;;12.89;69.44
64078;BME280;51039;49.696;10.808;2023-06-14T03:54:01;98121.47;;;13.01;69.16
64078;BME280;51039;49.696;10.808;2023-06-14T03:56:27;98124.75;;;13.15;68.41
64078;BME280;51039;49.696;10.808;2023-06-14T03:58:52;98128.94;;;13.23;68.22
64078;BME280;51039;49.696;10.808;2023-06-14T04:01:18;98133.75;;;13.32;67.90
64078;BME280;51039;49.696;10.808;2023-06-14T04:03:44;98128.03;;;13.47;67.55
64078;BME280;51039;49.696;10.808;2023-06-14T04:06:09;98134.06;;;13.66;66.80
64078;BME280;51039;49.696;10.808;2023-06-14T04:08:34;98140.03;;;13.92;66.07
64078;BME280;51039;49.696;10.808;2023-06-14T04:11:00;98142.91;;;14.85;63.07
64078;BME280;51039;49.696;10.808;2023-06-14T04:13:27;98149.34;;;16.04;59.04
64078;BME280;51039;49.696;10.808;2023-06-14T04:15:52;98141.44;;;16.65;56.61
64078;BME280;51039;49.696;10.808;2023-06-14T04:18:18;98143.53;;;17.29;54.46
64078;BME280;51039;49.696;10.808;2023-06-14T04:20:44;98135.72;;;17.77;53.04
64078;BME280;51039;49.696;10.808;2023-06-14T04:23:11;98143.88;;;18.24;51.05
64078;BME280;51039;49.696;10.808;2023-06-14T04:25:38;98147.72;;;18.39;51.36
64078;BME280;51039;49.696;10.808;2023-06-14T04:28:03;98142.13;;;18.88;49.65
64078;BME280;51039;49.696;10.808;2023-06-14T04:30:28;98147.34;;;18.68;49.73
64078;BME280;51039;49.696;10.808;2023-06-14T04:32:56;98154.72;;;18.40;50.73
64078;BME280;51039;49.696;10.808;2023-06-14T04:35:21;98152.78;;;17.43;53.40
64078;BME280;51039;49.696;10.808;2023-06-14T04:37:48;98158.06;;;16.50;56.39
64078;BME280;51039;49.696;10.808;2023-06-14T04:40:14;98163.38;;;15.94;58.15
64078;BME280;51039;49.696;10.808;2023-06-14T04:42:39;98158.69;;;15.56;59.89
64078;BME280;51039;49.696;10.808;2023-06-14T04:45:05;98159.25;;;16.03;58.78
64078;BME280;51039;49.696;10.808;2023-06-14T04:47:32;98155.03;;;18.11;52.97
64078;BME280;51039;49.696;10.808;2023-06-14T04:49:57;98153.38;;;19.79;48.36
64078;BME280;51039;49.696;10.808;2023-06-14T04:52:25;98160.63;;;21.21;44.73
64078;BME280;51039;49.696;10.808;2023-06-14T04:54:51;98159.34;;;22.02;42.55
64078;BME280;51039;49.696;10.808;2023-06-14T04:57:19;98162.16;;;23.23;40.05
64078;BME280;51039;49.696;10.808;2023-06-14T04:59:46;98157.50;;;23.28;39.54
64078;BME280;51039;49.696;10.808;2023-06-14T05:02:12;98161.00;;;23.10;39.88
64078;BME280;51039;49.696;10.808;2023-06-14T05:04:37;98166.41;;;23.48;39.15
64078;BME280;51039;49.696;10.808;2023-06-14T05:07:06;98164.59;;;23.62;38.96
64078;BME280;51039;49.696;10.808;2023-06-14T05:09:37;98164.63;;;24.14;38.05
64078;BME280;51039;49.696;10.808;2023-06-14T05:12:03;98161.72;;;24.57;36.82
64078;BME280;51039;49.696;10.808;2023-06-14T05:14:29;98164.16;;;24.73;36.59
64078;BME280;51039;49.696;10.808;2023-06-14T05:16:54;98158.03;;;24.67;36.83
64078;BME280;51039;49.696;10.808;2023-06-14T05:19:19;98164.44;;;23.91;37.96
64078;BME280;51039;49.696;10.808;2023-06-14T05:21:47;98168.06;;;23.25;39.27
64078;BME280;51039;49.696;10.808;2023-06-14T05:24:12;98175.63;;;21.47;43.16
64078;BME280;51039;49.696;10.808;2023-06-14T05:26:38;98176.34;;;21.03;44.30
64078;BME280;51039;49.696;10.808;2023-06-14T05:29:03;98171.63;;;24.15;38.16
64078;BME280;51039;49.696;10.808;2023-06-14T05:31:29;98173.97;;;24.22;37.74
64078;BME280;51039;49.696;10.808;2023-06-14T05:33:54;98166.50;;;22.76;40.26
64078;BME280;51039;49.696;10.808;2023-06-14T05:36:20;98176.53;;;21.77;42.13
64078;BME280;51039;49.696;10.808;2023-06-14T05:38:48;98178.41;;;23.61;38.38
64078;BME280;51039;49.696;10.808;2023-06-14T05:41:15;98179.34;;;24.41;37.17
64078;BME280;51039;49.696;10.808;2023-06-14T05:43:40;98178.50;;;25.15;35.95
64078;BME280;51039;49.696;10.808;2023-06-14T05:46:07;98184.50;;;26.12;34.18
64078;BME280;51039;49.696;10.808;2023-06-14T05:48:33;98187.06;;;26.17;34.33
64078;BME280;51039;49.696;10.808;2023-06-14T05:50:58;98187.59;;;26.19;33.80
64078;BME280;51039;49.696;10.808;2023-06-14T05:53:23;98189.47;;;26.64;33.18
64078;BME280;51039;49.696;10.808;2023-06-14T05:55:49;98194.06;;;27.87;31.89
64078;BME280;51039;49.696;10.808;2023-06-14T05:58:17;98194.06;;;26.95;32.93
64078;BME280;51039;49.696;10.808;2023-06-14T06:00:42;98188.69;;;25.96;34.33
64078;BME280;51039;49.696;10.808;2023-06-14T06:03:07;98185.56;;;25.66;34.93
64078;BME280;51039;49.696;10.808;2023-06-14T06:05:36;98187.75;;;26.23;34.13
64078;BME280;51039;49.696;10.808;2023-06-14T06:08:01;98184.81;;;26.11;34.58
64078;BME280;51039;49.696;10.808;2023-06-14T06:10:26;98188.56;;;26.86;33.05
64078;BME280;51039;49.696;10.808;2023-06-14T06:12:52;98189.03;;;26.79;33.35
64078;BME280;51039;49.696;10.808;2023-06-14T06:15:19;98189.84;;;26.03;34.51
64078;BME280;51039;49.696;10.808;2023-06-14T06:17:45;98202.78;;;25.84;35.20
64078;BME280;51039;49.696;10.808;2023-06-14T06:20:10;98194.00;;;26.86;33.25
64078;BME280;51039;49.696;10.808;2023-06-14T06:22:36;98201.31;;;26.45;33.86
64078;BME280;51039;49.696;10.808;2023-06-14T06:25:02;98198.41;;;27.05;33.07
64078;BME280;51039;49.696;10.808;2023-06-14T06:27:28;98202.06;;;27.57;32.19
64078;BME280;51039;49.696;10.808;2023-06-14T06:29:53;98206.53;;;25.74;35.18
64078;BME280;51039;49.696;10.808;2023-06-14T06:32:18;98203.59;;;23.37;39.39
64078;BME280;51039;49.696;10.808;2023-06-14T06:34:44;98207.84;;;22.42;41.42
64078;BME280;51039;49.696;10.808;2023-06-14T06:37:09;98196.53;;;22.40;41.77
64078;BME280;51039;49.696;10.808;2023-06-14T06:39:35;98206.91;;;24.43;38.16
64078;BME280;51039;49.696;10.808;2023-06-14T06:42:00;98200.59;;;22.03;42.53
64078;BME280;51039;49.696;10.808;2023-06-14T06:44:25;98209.56;;;21.43;43.70
64078;BME280;51039;49.696;10.808;2023-06-14T06:46:51;98209.22;;;20.90;45.02
64078;BME280;51039;49.696;10.808;2023-06-14T06:49:17;98213.59;;;20.70;45.99
64078;BME280;51039;49.696;10.808;2023-06-14T06:51:42;98220.84;;;20.70;45.60
64078;BME280;51039;49.696;10.808;2023-06-14T06:54:08;98215.50;;;21.50;44.07
64078;BME280;51039;49.696;10.808;2023-06-14T06:56:35;98215.13;;;21.67;42.92
64078;BME280;51039;49.696;10.808;2023-06-14T06:59:00;98215.38;;;22.74;40.47
64078;BME280;51039;49.696;10.808;2023-06-14T07:01:26;98220.34;;;25.36;35.44
64078;BME280;51039;49.696;10.808;2023-06-14T07:03:53;98214.56;;;26.70;32.92
64078;BME280;51039;49.696;10.808;2023-06-14T07:06:19;98227.66;;;28.35;31.02
64078;BME280;51039;49.696;10.808;2023-06-14T07:08:45;98221.13;;;28.10;30.93
64078;BME280;51039;49.696;10.808;2023-06-14T07:11:11;98217.59;;;27.57;30.98
64078;BME280;51039;49.696;10.808;2023-06-14T07:13:36;98226.78;;;26.58;32.96
64078;BME280;51039;49.696;10.808;2023-06-14T07:16:03;98224.19;;;26.53;32.51
64078;BME280;51039;49.696;10.808;2023-06-14T07:18:29;98224.09;;;27.38;31.29
64078;BME280;51039;49.696;10.808;2023-06-14T07:20:55;98220.16;;;27.79;30.61
64078;BME280;51039;49.696;10.808;2023-06-14T07:23:22;98225.13;;;27.11;31.82
64078;BME280;51039;49.696;10.808;2023-06-14T07:25:47;98215.78;;;29.13;28.98
64078;BME280;51039;49.696;10.808;2023-06-14T07:28:13;98222.63;;;29.49;28.66
64078;BME280;51039;49.696;10.808;2023-06-14T07:30:38;98222.50;;;29.07;28.68
64078;BME280;51039;49.696;10.808;2023-06-14T07:33:03;98227.50;;;29.05;28.78
64078;BME280;51039;49.696;10.808;2023-06-14T07:35:28;98230.06;;;28.54;29.59
64078;BME280;51039;49.696;10.808;2023-06-14T07:37:55;98235.66;;;28.57;29.28
64078;BME280;51039;49.696;10.808;2023-06-14T07:40:20;98228.38;;;28.79;28.58
64078;BME280;51039;49.696;10.808;2023-06-14T07:42:45;98230.00;;;29.99;27.75
64078;BME280;51039;49.696;10.808;2023-06-14T07:45:12;98241.53;;;29.54;27.44
64078;BME280;51039;49.696;10.808;2023-06-14T07:47:40;98238.25;;;29.90;27.10
64078;BME280;51039;49.696;10.808;2023-06-14T07:50:06;98220.47;;;28.95;28.20
64078;BME280;51039;49.696;10.808;2023-06-14T07:52:31;98226.19;;;26.16;31.59
64078;BME280;51039;49.696;10.808;2023-06-14T07:54:57;98230.78;;;25.15;33.56
64078;BME280;51039;49.696;10.808;2023-06-14T07:57:23;98226.69;;;25.96;32.21
64078;BME280;51039;49.696;10.808;2023-06-14T07:59:48;98227.13;;;27.28;30.45
64078;BME280;51039;49.696;10.808;2023-06-14T08:02:13;98224.00;;;26.50;31.16
64078;BME280;51039;49.696;10.808;2023-06-14T08:04:39;98233.63;;;25.10;33.44
64078;BME280;51039;49.696;10.808;2023-06-14T08:07:05;98232.94;;;25.96;32.32
64078;BME280;51039;49.696;10.808;2023-06-14T08:09:30;98236.59;;;27.48;29.83
64078;BME280;51039;49.696;10.808;2023-06-14T08:11:56;98222.28;;;27.91;29.40
64078;BME280;51039;49.696;10.808;2023-06-14T08:14:21;98241.50;;;28.12;28.60
64078;BME280;51039;49.696;10.808;2023-06-14T08:16:47;98247.97;;;27.50;29.55
64078;BME280;51039;49.696;10.808;2023-06-14T08:19:12;98242.09;;;29.68;26.51
64078;BME280;51039;49.696;10.808;2023-06-14T08:21:37;98241.91;;;29.44;27.06
64078;BME280;51039;49.696;10.808;2023-06-14T08:24:03;98236.22;;;31.37;25.34
64078;BME280;51039;49.696;10.808;2023-06-14T08:26:29;98241.78;;;32.18;24.25
64078;BME280;51039;49.696;10.808;2023-06-14T08:28:55;98241.03;;;32.05;23.98
64078;BME280;51039;49.696;10.808;2023-06-14T08:31:21;98232.69;;;31.36;24.45
64078;BME280;51039;49.696;10.808;2023-06-14T08:33:47;98253.56;;;29.23;27.03
64078;BME280;51039;49.696;10.808;2023-06-14T08:36:12;98242.16;;;27.26;29.45
64078;BME280;51039;49.696;10.808;2023-06-14T08:38:38;98243.22;;;27.82;28.96
64078;BME280;51039;49.696;10.808;2023-06-14T08:41:04;98244.75;;;27.39;29.64
64078;BME280;51039;49.696;10.808;2023-06-14T08:43:33;98235.41;;;24.87;33.27
64078;BME280;51039;49.696;10.808;2023-06-14T08:46:03;98243.88;;;25.27;32.91
64078;BME280;51039;49.696;10.808;2023-06-14T08:48:29;98246.19;;;26.20;31.69
64078;BME280;51039;49.696;10.808;2023-06-14T08:51:01;98237.38;;;27.40;29.48
64078;BME280;51039;49.696;10.808;2023-06-14T08:53:32;98246.66;;;27.30;29.64
64078;BME280;51039;49.696;10.808;2023-06-14T08:56:02;98240.38;;;28.05;28.67
64078;BME280;51039;49.696;10.808;2023-06-14T08:58:29;98225.47;;;27.93;28.82
64078;BME280;51039;49.696;10.808;2023-06-14T09:00:58;98237.44;;;27.66;28.99
64078;BME280;51039;49.696;10.808;2023-06-14T09:03:26;98240.38;;;28.95;27.37
64078;BME280;51039;49.696;10.808;2023-06-14T09:05:55;98228.94;;;29.02;26.98
64078;BME280;51039;49.696;10.808;2023-06-14T09:08:21;98222.75;;;27.93;28.60
64078;BME280;51039;49.696;10.808;2023-06-14T09:10:48;98221.41;;;27.56;29.23
64078;BME280;51039;49.696;10.808;2023-06-14T09:13:14;98231.50;;;27.55;28.59
64078;BME280;51039;49.696;10.808;2023-06-14T09:15:39;98234.56;;;28.32;27.30
64078;BME280;51039;49.696;10.808;2023-06-14T09:18:05;98232.13;;;29.72;26.06
64078;BME280;51039;49.696;10.808;2023-06-14T09:20:31;98236.34;;;30.58;24.27
64078;BME280;51039;49.696;10.808;2023-06-14T09:22:57;98239.69;;;30.63;24.62
64078;BME280;51039;49.696;10.808;2023-06-14T09:25:22;98239.13;;;30.70;24.61
64078;BME280;51039;49.696;10.808;2023-06-14T09:27:51;98245.16;;;30.09;24.34
64078;BME280;51039;49.696;10.808;2023-06-14T09:30:16;98239.59;;;28.86;25.57
64078;BME280;51039;49.696;10.808;2023-06-14T09:32:45;98247.41;;;28.14;26.56
64078;BME280;51039;49.696;10.808;2023-06-14T09:35:11;98247.66;;;26.27;28.42
64078;BME280;51039;49.696;10.808;2023-06-14T09:37:36;98250.97;;;25.64;29.56
64078;BME280;51039;49.696;10.808;2023-06-14T09:40:04;98239.84;;;27.76;27.98
64078;BME280;51039;49.696;10.808;2023-06-14T09:42:31;98239.34;;;27.57;26.89
64078;BME280;51039;49.696;10.808;2023-06-14T09:45:00;98238.97;;;29.28;25.56
64078;BME280;51039;49.696;10.808;2023-06-14T09:47:27;98246.22;;;30.83;23.94
64078;BME280;51039;49.696;10.808;2023-06-14T09:49:52;98234.56;;;28.41;25.88
64078;BME280;51039;49.696;10.808;2023-06-14T09:52:21;98236.34;;;28.28;26.01
64078;BME280;51039;49.696;10.808;2023-06-14T09:54:48;98230.88;;;29.02;25.22
64078;BME280;51039;49.696;10.808;2023-06-14T09:57:17;98230.25;;;31.72;23.55
64078;BME280;51039;49.696;10.808;2023-06-14T09:59:46;98238.06;;;30.50;23.94
64078;BME280;51039;49.696;10.808;2023-06-14T10:02:24;98225.00;;;30.01;24.78
64078;BME280;51039;49.696;10.808;2023-06-14T10:04:58;98230.59;;;26.26;29.78
64078;BME280;51039;49.696;10.808;2023-06-14T10:07:32;98235.03;;;25.85;30.07
64078;BME280;51039;49.696;10.808;2023-06-14T10:10:06;98235.81;;;25.22;30.49
64078;BME280;51039;49.696;10.808;2023-06-14T10:12:32;98232.03;;;25.37;30.25
64078;BME280;51039;49.696;10.808;2023-06-14T10:14:58;98226.88;;;25.99;30.17
64078;BME280;51039;49.696;10.808;2023-06-14T10:17:27;98240.81;;;26.52;29.85
64078;BME280;51039;49.696;10.808;2023-06-14T10:22:49;98244.47;;;26.24;28.79
64078;BME280;51039;49.696;10.808;2023-06-14T10:25:30;98237.56;;;26.18;28.97
64078;BME280;51039;49.696;10.808;2023-06-14T10:28:02;98239.66;;;26.21;29.33
64078;BME280;51039;49.696;10.808;2023-06-14T10:31:02;98234.31;;;27.33;26.73
64078;BME280;51039;49.696;10.808;2023-06-14T10:33:32;98238.38;;;27.53;26.88
64078;BME280;51039;49.696;10.808;2023-06-14T10:41:37;98239.75;;;24.36;32.43
64078;BME280;51039;49.696;10.808;2023-06-14T10:46:38;98248.28;;;26.01;29.87
64078;BME280;51039;49.696;10.808;2023-06-14T10:49:16;98245.25;;;26.25;29.29
64078;BME280;51039;49.696;10.808;2023-06-14T10:51:45;98239.66;;;26.21;29.21
64078;BME280;51039;49.696;10.808;2023-06-14T10:54:17;98239.47;;;25.31;29.88
64078;BME280;51039;49.696;10.808;2023-06-14T10:56:49;98252.66;;;25.74;29.83
64078;BME280;51039;49.696;10.808;2023-06-14T10:59:16;98245.44;;;26.51;28.53
64078;BME280;51039;49.696;10.808;2023-06-14T11:04:48;98238.00;;;26.12;28.29
64078;BME280;51039;49.696;10.808;2023-06-14T11:07:30;98244.94;;;26.72;27.90
64078;BME280;51039;49.696;10.808;2023-06-14T11:13:04;98231.25;;;27.92;27.75
64078;BME280;51039;49.696;10.808;2023-06-14T11:15:34;98232.66;;;27.80;25.26
64078;BME280;51039;49.696;10.808;2023-06-14T11:18:04;98227.97;;;27.64;26.77
64078;BME280;51039;49.696;10.808;2023-06-14T11:20:30;98231.25;;;27.92;26.39
64078;BME280;51039;49.696;10.808;2023-06-14T11:22:58;98234.88;;;27.78;26.34
64078;BME280;51039;49.696;10.808;2023-06-14T11:25:24;98226.84;;;27.56;25.72
64078;BME280;51039;49.696;10.808;2023-06-14T11:27:51;98234.78;;;26.86;27.54
64078;BME280;51039;49.696;10.808;2023-06-14T11:30:16;98235.00;;;26.98;27.74
64078;BME280;51039;49.696;10.808;2023-06-14T11:32:42;98227.34;;;27.00;27.28
64078;BME280;51039;49.696;10.808;2023-06-14T11:35:10;98227.41;;;26.33;27.82
64078;BME280;51039;49.696;10.808;2023-06-14T11:37:36;98227.59;;;26.36;28.22
64078;BME280;51039;49.696;10.808;2023-06-14T11:40:06;98224.56;;;26.83;26.82
64078;BME280;51039;49.696;10.808;2023-06-14T11:42:36;98222.09;;;26.50;27.05
64078;BME280;51039;49.696;10.808;2023-06-14T11:45:02;98222.59;;;26.52;27.13
64078;BME280;51039;49.696;10.808;2023-06-14T11:47:33;98223.00;;;26.99;27.00
64078;BME280;51039;49.696;10.808;2023-06-14T11:49:59;98216.25;;;27.28;27.89
64078;BME280;51039;49.696;10.808;2023-06-14T11:52:25;98211.06;;;28.02;26.29
64078;BME280;51039;49.696;10.808;2023-06-14T11:54:50;98211.31;;;29.00;25.63
64078;BME280;51039;49.696;10.808;2023-06-14T11:57:17;98217.13;;;28.25;24.43
64078;BME280;51039;49.696;10.808;2023-06-14T11:59:43;98216.28;;;27.46;25.59
64078;BME280;51039;49.696;10.808;2023-06-14T12:02:13;98209.56;;;27.69;25.95
64078;BME280;51039;49.696;10.808;2023-06-14T12:04:48;98207.28;;;28.50;24.97
64078;BME280;51039;49.696;10.808;2023-06-14T12:07:14;98202.25;;;27.96;25.90
64078;BME280;51039;49.696;10.808;2023-06-14T12:09:42;98208.81;;;28.12;27.05
64078;BME280;51039;49.696;10.808;2023-06-14T12:12:27;98208.25;;;28.63;24.93
64078;BME280;51039;49.696;10.808;2023-06-14T12:14:55;98204.78;;;27.75;25.88
64078;BME280;51039;49.696;10.808;2023-06-14T12:17:21;98201.25;;;27.57;26.84
64078;BME280;51039;49.696;10.808;2023-06-14T12:19:48;98197.81;;;27.25;26.44
64078;BME280;51039;49.696;10.808;2023-06-14T12:22:28;98206.56;;;26.64;26.22
64078;BME280;51039;49.696;10.808;2023-06-14T12:24:55;98207.53;;;26.46;27.09
64078;BME280;51039;49.696;10.808;2023-06-14T12:27:22;98211.22;;;25.96;27.16
64078;BME280;51039;49.696;10.808;2023-06-14T12:29:58;98212.63;;;26.16;27.31
64078;BME280;51039;49.696;10.808;2023-06-14T12:32:24;98212.97;;;26.46;26.20
64078;BME280;51039;49.696;10.808;2023-06-14T12:34:50;98206.38;;;27.58;27.17
64078;BME280;51039;49.696;10.808;2023-06-14T12:37:15;98200.94;;;27.58;25.31
64078;BME280;51039;49.696;10.808;2023-06-14T12:39:41;98208.00;;;26.62;26.50
64078;BME280;51039;49.696;10.808;2023-06-14T12:42:06;98205.53;;;26.07;27.85
64078;BME280;51039;49.696;10.808;2023-06-14T12:44:31;98207.50;;;26.15;27.66
64078;BME280;51039;49.696;10.808;2023-06-14T12:47:00;98207.31;;;26.34;27.87
64078;BME280;51039;49.696;10.808;2023-06-14T12:49:26;98209.56;;;26.63;28.15
64078;BME280;51039;49.696;10.808;2023-06-14T12:51:51;98204.69;;;26.82;28.07
64078;BME280;51039;49.696;10.808;2023-06-14T12:54:16;98212.00;;;27.13;26.96
64078;BME280;51039;49.696;10.808;2023-06-14T12:56:42;98208.75;;;27.42;26.22
64078;BME280;51039;49.696;10.808;2023-06-14T12:59:09;98220.41;;;26.94;27.39
64078;BME280;51039;49.696;10.808;2023-06-14T13:01:37;98226.97;;;25.58;28.08
64078;BME280;51039;49.696;10.808;2023-06-14T13:04:04;98221.56;;;25.80;28.62
64078;BME280;51039;49.696;10.808;2023-06-14T13:06:29;98225.78;;;26.00;27.89
64078;BME280;51039;49.696;10.808;2023-06-14T13:08:56;98220.88;;;25.89;27.12
64078;BME280;51039;49.696;10.808;2023-06-14T13:11:22;98228.50;;;25.22;28.38